createdAt,value
2017-11-03T00:02:01.087Z,21.70
2017-11-03T00:04:29.525Z,20.73
2017-11-03T00:06:58.142Z,22.20
2017-11-03T00:09:26.498Z,21.70
2017-11-03T00:11:54.918Z,22.17
2017-11-03T00:14:23.278Z,22.10
2017-11-03T00:16:51.638Z,22.43
2017-11-03T00:19:19.711Z,22.57
2017-11-03T00:21:50.063Z,23.60
2017-11-03T00:24:18.417Z,22.77
2017-11-03T00:26:47.762Z,24.37
2017-11-03T00:29:16.118Z,23.83
2017-11-03T00:31:44.548Z,24.27
2017-11-03T00:34:13.758Z,22.23
2017-11-03T00:36:44.282Z,23.23
2017-11-03T00:39:13.412Z,22.80
2017-11-03T00:41:41.776Z,23.07
2017-11-03T00:44:10.214Z,23.70
2017-11-03T00:46:38.822Z,23.27
2017-11-03T00:49:07.175Z,22.83
2017-11-03T00:51:36.343Z,24.53
2017-11-03T00:54:04.348Z,24.07
2017-11-03T00:56:33.531Z,22.80
2017-11-03T00:59:01.897Z,23.60
2017-11-03T01:01:30.251Z,23.87
2017-11-03T01:03:58.641Z,23.87
2017-11-03T01:06:26.998Z,23.90
2017-11-03T01:08:55.414Z,24.47
2017-11-03T01:11:23.771Z,24.50
2017-11-03T01:13:52.136Z,24.20
2017-11-03T01:16:20.564Z,25.37
2017-11-03T01:18:49.679Z,23.87
2017-11-03T01:21:18.034Z,23.43
2017-11-03T01:23:47.246Z,25.13
2017-11-03T01:26:15.611Z,24.00
2017-11-03T01:28:43.953Z,24.40
2017-11-03T01:31:12.027Z,24.37
2017-11-03T01:33:40.383Z,24.07
2017-11-03T01:36:08.749Z,23.43
2017-11-03T01:38:36.825Z,23.10
2017-11-03T01:41:06.662Z,23.77
2017-11-03T01:43:34.680Z,24.27
2017-11-03T01:46:07.242Z,23.27
2017-11-03T01:48:36.365Z,23.57
2017-11-03T01:51:04.771Z,23.07
2017-11-03T01:53:33.131Z,24.23
2017-11-03T01:56:01.482Z,24.17
2017-11-03T01:58:30.646Z,24.87
2017-11-03T02:00:58.710Z,23.30
2017-11-03T02:03:27.035Z,24.57
2017-11-03T02:05:55.038Z,23.10
2017-11-03T02:08:23.400Z,23.90
2017-11-03T02:10:51.858Z,23.60
2017-11-03T02:13:20.220Z,24.47
2017-11-03T02:15:50.374Z,23.67
2017-11-03T02:18:18.734Z,23.37
2017-11-03T02:20:46.403Z,22.80
2017-11-03T02:23:14.794Z,23.73
2017-11-03T02:25:45.175Z,21.70
2017-11-03T02:28:13.954Z,23.80
2017-11-03T02:30:42.424Z,23.47
2017-11-03T02:33:10.774Z,24.73
2017-11-03T02:35:40.161Z,22.90
2017-11-03T02:38:08.564Z,23.90
2017-11-03T02:40:36.577Z,23.77
2017-11-03T02:43:05.184Z,22.90
2017-11-03T02:45:33.632Z,24.47
2017-11-03T02:48:02.751Z,25.10
2017-11-03T02:50:31.107Z,23.17
2017-11-03T02:53:00.275Z,23.57
2017-11-03T02:55:29.649Z,24.20
2017-11-03T02:57:58.003Z,23.37
2017-11-03T03:00:26.423Z,22.97
2017-11-03T03:02:54.774Z,23.77
2017-11-03T03:05:24.283Z,24.07
2017-11-03T03:07:52.671Z,24.37
2017-11-03T03:10:21.032Z,25.07
2017-11-03T03:12:49.386Z,22.50
2017-11-03T03:15:17.414Z,22.23
2017-11-03T03:17:45.811Z,23.20
2017-11-03T03:20:14.411Z,23.70
2017-11-03T03:22:43.542Z,24.50
2017-11-03T03:25:11.855Z,23.67
2017-11-03T03:27:40.202Z,23.17
2017-11-03T03:30:08.720Z,25.00
2017-11-03T03:32:37.118Z,23.47
2017-11-03T03:35:07.219Z,24.40
2017-11-03T03:37:35.571Z,25.53
2017-11-03T03:40:03.327Z,24.73
2017-11-03T03:42:31.700Z,25.40
2017-11-03T03:45:00.116Z,24.00
2017-11-03T03:47:28.138Z,25.07
2017-11-03T03:49:56.521Z,25.37
2017-11-03T03:52:24.931Z,24.97
2017-11-03T03:54:54.333Z,22.93
2017-11-03T03:57:22.003Z,26.27
2017-11-03T03:59:50.432Z,25.83
2017-11-03T04:02:18.803Z,24.50
2017-11-03T04:04:51.455Z,24.93
2017-11-03T04:07:20.627Z,24.30
2017-11-03T04:09:48.983Z,24.60
2017-11-03T04:12:17.344Z,24.93
2017-11-03T04:14:45.754Z,23.57
2017-11-03T04:17:14.107Z,24.03
2017-11-03T04:19:42.470Z,24.67
2017-11-03T04:22:10.863Z,26.63
2017-11-03T04:24:39.228Z,25.57
2017-11-03T04:27:07.235Z,25.20
2017-11-03T04:29:35.624Z,25.00
2017-11-03T04:32:03.640Z,24.20
2017-11-03T04:34:32.987Z,25.70
2017-11-03T04:37:01.732Z,24.40
2017-11-03T04:39:31.439Z,25.27
2017-11-03T04:41:59.790Z,24.30
2017-11-03T04:44:27.850Z,25.00
2017-11-03T04:46:56.632Z,24.83
2017-11-03T04:49:26.898Z,25.43
2017-11-03T04:51:55.289Z,25.57
2017-11-03T04:54:25.020Z,25.03
2017-11-03T04:56:53.379Z,24.33
2017-11-03T04:59:21.776Z,24.63
2017-11-03T05:01:50.141Z,25.90
2017-11-03T05:04:18.494Z,24.53
2017-11-03T05:06:46.894Z,25.17
2017-11-03T05:09:15.256Z,25.33
2017-11-03T05:11:43.607Z,24.80
2017-11-03T05:14:11.988Z,25.53
2017-11-03T05:16:40.359Z,24.57
2017-11-03T05:19:08.748Z,25.73
2017-11-03T05:21:37.105Z,26.33
2017-11-03T05:24:06.230Z,24.47
2017-11-03T05:26:34.631Z,26.10
2017-11-03T05:29:02.984Z,24.37
2017-11-03T05:31:31.340Z,25.83
2017-11-03T05:33:59.747Z,25.50
2017-11-03T05:36:27.415Z,24.33
2017-11-03T05:38:55.772Z,25.60
2017-11-03T05:41:24.166Z,26.00
2017-11-03T05:43:52.174Z,24.30
2017-11-03T05:46:20.188Z,25.60
2017-11-03T05:48:48.570Z,25.13
2017-11-03T05:51:16.962Z,25.30
2017-11-03T05:53:46.299Z,25.73
2017-11-03T05:56:14.651Z,26.43
2017-11-03T05:58:43.047Z,26.40
2017-11-03T06:01:11.220Z,25.93
2017-11-03T06:03:40.626Z,27.23
2017-11-03T06:06:09.036Z,27.00
2017-11-03T06:08:38.195Z,26.03
2017-11-03T06:11:06.551Z,26.83
2017-11-03T06:13:34.940Z,25.37
2017-11-03T06:16:03.295Z,27.03
2017-11-03T06:18:31.464Z,26.40
2017-11-03T06:20:59.668Z,27.23
2017-11-03T06:23:28.016Z,26.40
2017-11-03T06:25:56.379Z,25.80
2017-11-03T06:28:26.799Z,25.23
2017-11-03T06:30:55.158Z,25.03
2017-11-03T06:33:24.289Z,26.07
2017-11-03T06:35:52.676Z,25.93
2017-11-03T06:38:21.031Z,25.20
2017-11-03T06:40:49.290Z,24.77
2017-11-03T06:43:18.463Z,24.73
2017-11-03T06:45:46.821Z,25.13
2017-11-03T06:48:15.170Z,25.63
2017-11-03T06:50:43.202Z,26.60
2017-11-03T06:53:12.209Z,26.60
2017-11-03T06:55:40.271Z,26.30
2017-11-03T06:58:08.621Z,27.33
2017-11-03T07:00:37.746Z,24.73
2017-11-03T07:03:06.130Z,26.43
2017-11-03T07:05:34.497Z,27.20
2017-11-03T07:08:02.851Z,26.10
2017-11-03T07:10:31.805Z,24.47
2017-11-03T07:13:00.161Z,25.60
2017-11-03T07:15:28.171Z,25.80
2017-11-03T07:17:57.766Z,24.70
2017-11-03T07:20:25.774Z,25.77
2017-11-03T07:22:54.126Z,26.23
2017-11-03T07:25:23.302Z,26.07
2017-11-03T07:27:51.663Z,25.47
2017-11-03T07:30:20.018Z,26.03
2017-11-03T07:32:48.426Z,28.00
2017-11-03T07:35:16.785Z,27.00
2017-11-03T07:37:45.138Z,27.23
2017-11-03T07:40:13.524Z,26.80
2017-11-03T07:42:42.779Z,26.07
2017-11-03T07:45:10.796Z,26.90
2017-11-03T07:47:39.187Z,25.23
2017-11-03T07:50:07.541Z,25.53
2017-11-03T07:52:35.904Z,24.80
2017-11-03T07:55:05.051Z,26.30
2017-11-03T07:57:35.401Z,25.10
2017-11-03T08:00:03.763Z,26.50
2017-11-03T08:02:32.173Z,25.53
2017-11-03T08:05:01.298Z,25.77
2017-11-03T08:07:29.657Z,25.63
2017-11-03T08:09:58.038Z,25.57
2017-11-03T08:12:26.392Z,25.73
2017-11-03T08:14:54.746Z,26.13
2017-11-03T08:17:23.915Z,25.67
2017-11-03T08:19:52.269Z,25.03
2017-11-03T08:22:21.637Z,25.57
2017-11-03T08:24:50.026Z,24.90
2017-11-03T08:27:19.142Z,26.20
2017-11-03T08:29:47.498Z,25.67
2017-11-03T08:32:16.802Z,27.07
2017-11-03T08:34:45.922Z,26.50
2017-11-03T08:37:16.355Z,27.07
2017-11-03T08:39:44.710Z,26.63
2017-11-03T08:42:14.806Z,25.63
2017-11-03T08:44:43.175Z,26.73
2017-11-03T08:47:11.526Z,25.57
2017-11-03T08:49:39.912Z,25.17
2017-11-03T08:52:09.298Z,24.33
2017-11-03T08:54:37.911Z,22.90
2017-11-03T08:57:06.568Z,24.20
2017-11-03T08:59:34.914Z,23.80
2017-11-03T09:02:05.379Z,24.67
2017-11-03T09:04:33.754Z,23.20
2017-11-03T09:07:02.112Z,23.33
2017-11-03T09:09:30.251Z,23.47
2017-11-03T09:12:01.410Z,23.97
2017-11-03T09:14:29.084Z,24.27
2017-11-03T09:16:58.189Z,22.67
2017-11-03T09:19:26.538Z,24.77
2017-11-03T09:21:55.944Z,23.87
2017-11-03T09:24:24.575Z,24.23
2017-11-03T09:26:53.898Z,23.87
2017-11-03T09:29:22.254Z,23.73
2017-11-03T09:31:51.545Z,23.50
2017-11-03T09:34:19.556Z,25.20
2017-11-03T09:36:48.852Z,22.63
2017-11-03T09:39:16.888Z,24.90
2017-11-03T09:41:48.379Z,23.17
2017-11-03T09:44:17.542Z,23.23
2017-11-03T09:46:46.866Z,24.23
2017-11-03T09:49:15.217Z,23.80
2017-11-03T09:51:44.610Z,21.57
2017-11-03T09:54:12.967Z,23.03
2017-11-03T09:56:40.627Z,23.03
2017-11-03T09:59:09.031Z,23.33
2017-11-03T10:01:37.389Z,22.17
2017-11-03T10:04:05.747Z,23.37
2017-11-03T10:06:34.150Z,23.03
2017-11-03T10:09:02.322Z,23.20
2017-11-03T10:11:32.695Z,23.17
2017-11-03T10:14:01.069Z,22.53
2017-11-03T10:16:29.418Z,22.33
2017-11-03T10:18:57.823Z,23.63
2017-11-03T10:21:25.834Z,23.40
2017-11-03T10:23:54.185Z,23.13
2017-11-03T10:26:24.995Z,22.17
2017-11-03T10:28:53.383Z,20.30
2017-11-03T10:31:23.716Z,21.27
2017-11-03T10:33:52.326Z,20.93
2017-11-03T10:36:22.414Z,21.27
2017-11-03T10:38:50.775Z,20.73
2017-11-03T10:41:22.910Z,21.13
2017-11-03T10:43:51.258Z,22.17
2017-11-03T10:46:19.691Z,21.53
2017-11-03T10:48:48.066Z,20.27
2017-11-03T10:51:19.875Z,21.13
2017-11-03T10:53:48.312Z,21.13
2017-11-03T10:56:17.672Z,20.90
2017-11-03T10:58:46.082Z,20.63
2017-11-03T11:01:17.894Z,21.23
2017-11-03T11:03:46.350Z,22.00
2017-11-03T11:06:14.713Z,21.23
2017-11-03T11:08:43.070Z,19.90
2017-11-03T11:11:13.527Z,21.77
2017-11-03T11:13:41.881Z,20.90
2017-11-03T11:16:12.227Z,20.33
2017-11-03T11:18:40.706Z,19.77
2017-11-03T11:21:08.725Z,18.33
2017-11-03T11:23:37.074Z,19.03
2017-11-03T11:26:07.884Z,20.27
2017-11-03T11:28:36.243Z,19.23
2017-11-03T11:31:05.603Z,19.27
2017-11-03T11:33:33.965Z,19.60
2017-11-03T11:36:02.238Z,18.07
2017-11-03T11:38:30.705Z,19.00
2017-11-03T11:40:58.379Z,19.27
2017-11-03T11:43:26.035Z,19.03
2017-11-03T12:31:47.384Z,19.07
2017-11-03T12:34:15.431Z,18.50
2017-11-03T12:36:43.866Z,17.30
2017-11-03T12:39:11.543Z,17.43
2017-11-03T12:41:39.261Z,18.43
2017-11-03T12:44:06.929Z,16.57
2017-11-03T12:46:34.635Z,17.60
2017-11-03T12:49:02.345Z,17.77
2017-11-03T12:51:30.015Z,17.30
2017-11-03T12:53:57.682Z,16.97
2017-11-03T12:56:25.386Z,16.70
2017-11-03T12:58:53.055Z,16.53
2017-11-03T13:01:22.423Z,16.43
2017-11-03T13:03:50.110Z,15.27
2017-11-03T13:06:17.800Z,14.97
2017-11-03T13:08:45.710Z,14.90
2017-11-03T13:11:15.429Z,15.43
2017-11-03T13:13:43.103Z,14.30
2017-11-03T13:16:11.463Z,14.63
2017-11-03T13:18:39.511Z,14.43
2017-11-03T13:21:08.166Z,18.17
2017-11-03T13:23:36.598Z,13.60
2017-11-03T13:26:04.356Z,13.53
2017-11-03T13:28:31.834Z,13.33
2017-11-03T13:31:00.446Z,13.93
2017-11-03T13:33:28.901Z,13.33
2017-11-03T13:35:56.598Z,13.30
2017-11-03T13:38:24.262Z,14.03
2017-11-03T13:40:53.992Z,13.57
2017-11-03T13:43:22.270Z,12.13
2017-11-03T13:45:49.934Z,12.73
2017-11-03T13:48:17.630Z,12.60
2017-11-03T13:50:46.402Z,13.00
2017-11-03T13:53:14.769Z,11.47
2017-11-03T13:55:43.862Z,13.27
2017-11-03T13:58:11.545Z,12.70
2017-11-03T14:00:41.016Z,11.47
2017-11-03T14:03:09.370Z,12.87
2017-11-03T14:05:38.911Z,13.20
2017-11-03T14:08:07.322Z,12.20
2017-11-03T14:10:35.003Z,12.47
2017-11-03T14:13:03.782Z,12.40
2017-11-03T14:15:32.955Z,12.03
2017-11-03T14:18:01.314Z,11.27
2017-11-03T14:20:29.687Z,12.23
2017-11-03T14:22:58.087Z,11.07
2017-11-03T14:25:26.459Z,12.23
2017-11-03T14:27:54.827Z,12.70
2017-11-03T14:30:24.317Z,12.53
2017-11-03T14:32:52.710Z,13.60
2017-11-03T14:35:20.883Z,12.93
2017-11-03T14:37:49.240Z,13.57
2017-11-03T14:40:17.899Z,13.90
2017-11-03T14:42:47.026Z,13.63
2017-11-03T14:45:15.386Z,13.63
2017-11-03T14:47:43.763Z,13.30
2017-11-03T14:50:12.153Z,13.10
2017-11-03T14:52:40.782Z,13.33
2017-11-03T14:55:11.218Z,12.93
2017-11-03T14:57:39.608Z,13.50
2017-11-03T15:00:08.732Z,12.77
2017-11-03T15:02:37.098Z,12.70
2017-11-03T15:05:06.675Z,14.13
2017-11-03T15:07:35.025Z,14.07
2017-11-03T15:10:05.241Z,14.63
2017-11-03T15:12:33.631Z,15.03
2017-11-03T15:15:02.038Z,15.90
2017-11-03T15:17:31.162Z,15.83
2017-11-03T15:20:00.543Z,16.73
2017-11-03T15:22:29.682Z,15.83
2017-11-03T15:24:57.714Z,16.50
2017-11-03T15:27:26.886Z,17.40
2017-11-03T15:29:56.295Z,16.37
2017-11-03T15:32:24.658Z,18.07
2017-11-03T15:34:53.071Z,15.70
2017-11-03T15:37:22.011Z,16.47
2017-11-03T15:39:51.339Z,16.53
2017-11-03T15:42:19.739Z,17.60
2017-11-03T15:44:48.166Z,16.57
2017-11-03T15:47:16.526Z,16.13
2017-11-03T15:49:45.850Z,15.90
2017-11-03T15:52:13.511Z,17.40
2017-11-03T15:54:41.559Z,17.10
2017-11-03T15:57:09.934Z,16.00
2017-11-03T15:59:38.493Z,16.07
2017-11-03T16:02:06.867Z,16.87
2017-11-03T16:04:35.290Z,16.67
2017-11-03T16:07:03.678Z,17.17
2017-11-03T16:09:33.279Z,16.33
2017-11-03T16:12:02.645Z,17.13
2017-11-03T16:14:31.023Z,17.70
2017-11-03T16:16:59.462Z,16.43
2017-11-03T16:19:27.822Z,16.60
2017-11-03T16:21:56.197Z,17.70
2017-11-03T16:24:25.523Z,17.20
2017-11-03T16:26:53.908Z,18.03
2017-11-03T16:29:22.271Z,16.47
2017-11-03T16:31:50.624Z,16.77
2017-11-03T16:34:19.040Z,17.03
2017-11-03T16:36:47.638Z,17.47
2017-11-03T16:39:16.766Z,18.40
2017-11-03T16:41:45.174Z,17.73
2017-11-03T16:44:13.523Z,17.57
2017-11-03T16:46:41.878Z,17.73
2017-11-03T16:49:10.254Z,18.00
2017-11-03T16:51:39.527Z,18.43
2017-11-03T16:54:07.907Z,17.40
2017-11-03T16:56:36.281Z,18.37
2017-11-03T16:59:04.543Z,19.40
2017-11-03T17:01:32.983Z,18.70
2017-11-03T17:04:01.334Z,18.40
2017-11-03T17:06:29.762Z,19.17
2017-11-03T17:08:57.811Z,19.00
2017-11-03T17:11:26.164Z,19.33
2017-11-03T17:13:55.308Z,19.30
2017-11-03T17:16:23.870Z,19.53
2017-11-03T17:18:52.243Z,20.03
2017-11-03T17:21:20.598Z,21.10
2017-11-03T17:23:49.773Z,18.80
2017-11-03T17:26:18.153Z,19.93
2017-11-03T17:29:03.707Z,20.97
2017-11-03T17:31:32.059Z,20.37
2017-11-03T17:34:00.419Z,21.50
2017-11-03T17:36:28.901Z,21.77
2017-11-03T17:38:57.249Z,22.00
2017-11-03T17:41:26.371Z,23.07
2017-11-03T17:43:54.781Z,21.30
2017-11-03T17:46:22.948Z,22.63
2017-11-03T17:48:50.774Z,22.87
2017-11-03T17:51:19.914Z,23.00
2017-11-03T17:53:48.291Z,22.27
2017-11-03T17:56:16.648Z,23.20
2017-11-03T17:58:45.062Z,22.77
2017-11-03T18:01:13.423Z,22.20
2017-11-03T18:03:41.775Z,21.97
2017-11-03T18:06:10.186Z,23.07
2017-11-03T18:08:38.547Z,24.00
2017-11-03T18:11:06.723Z,23.43
2017-11-03T18:13:34.940Z,23.33
2017-11-03T18:16:03.293Z,21.27
2017-11-03T18:18:31.348Z,21.77
2017-11-03T18:20:59.030Z,22.60
2017-11-03T18:23:27.070Z,22.20
2017-11-03T18:25:55.439Z,22.33
2017-11-03T18:28:23.790Z,21.90
2017-11-03T18:30:52.962Z,22.23
2017-11-03T18:33:21.315Z,22.43
2017-11-03T18:35:49.326Z,21.53
2017-11-03T18:38:18.481Z,24.23
2017-11-03T18:40:46.839Z,22.50
2017-11-03T18:43:15.755Z,23.37
2017-11-03T18:45:44.151Z,22.77
2017-11-03T18:48:12.511Z,24.17
2017-11-03T18:50:40.866Z,24.07
2017-11-03T18:53:09.271Z,25.00
2017-11-03T18:55:37.630Z,26.13
2017-11-03T18:58:07.995Z,25.93
2017-11-03T19:00:36.401Z,24.67
2017-11-03T19:03:04.759Z,25.00
2017-11-03T19:05:33.115Z,25.20
2017-11-03T19:08:02.479Z,24.40
2017-11-03T19:10:30.835Z,25.37
2017-11-03T19:13:00.206Z,23.57
2017-11-03T19:15:28.608Z,22.67
2017-11-03T19:17:57.743Z,24.53
2017-11-03T19:20:26.099Z,24.93
2017-11-03T19:22:54.486Z,24.87
2017-11-03T19:25:22.656Z,23.70
2017-11-03T19:27:51.016Z,24.93
2017-11-03T19:30:19.215Z,23.90
2017-11-03T19:32:48.567Z,23.23
2017-11-03T19:35:16.730Z,24.03
2017-11-03T19:37:45.153Z,24.23
2017-11-03T19:40:13.728Z,25.07
2017-11-03T19:42:42.095Z,24.10
2017-11-03T19:45:11.271Z,23.00
2017-11-03T19:47:39.713Z,24.97
2017-11-03T19:50:08.104Z,22.83
2017-11-03T19:52:36.508Z,23.97
2017-11-03T19:55:04.872Z,22.80
2017-11-03T19:57:33.543Z,23.23
2017-11-03T20:00:01.991Z,23.47
2017-11-03T20:02:30.346Z,23.63
2017-11-03T20:04:59.637Z,22.93
2017-11-03T20:07:28.712Z,23.23
2017-11-03T20:09:58.126Z,24.07
2017-11-03T20:12:26.512Z,23.20
2017-11-03T20:14:56.587Z,24.57
2017-11-03T20:17:25.820Z,22.70
2017-11-03T20:19:54.950Z,22.83
2017-11-03T20:22:37.211Z,23.83
2017-11-03T20:25:05.618Z,22.67
2017-11-03T20:27:33.994Z,23.80
2017-11-03T20:30:03.183Z,22.50
2017-11-03T20:32:35.355Z,24.50
2017-11-03T20:35:03.763Z,23.87
2017-11-03T20:37:32.139Z,22.83
2017-11-03T20:40:00.514Z,23.57
2017-11-03T20:42:28.902Z,21.73
2017-11-03T20:44:57.530Z,21.53
2017-11-03T20:47:26.728Z,22.20
2017-11-03T20:49:55.348Z,23.00
2017-11-03T20:52:23.944Z,22.47
2017-11-03T20:54:52.599Z,22.33
2017-11-03T20:57:22.130Z,22.63
2017-11-03T20:59:50.654Z,23.47
2017-11-03T21:02:19.035Z,21.73
2017-11-03T21:04:47.415Z,22.97
2017-11-03T21:07:16.809Z,24.60
2017-11-03T21:09:46.057Z,22.47
2017-11-03T21:12:15.509Z,22.33
2017-11-03T21:14:43.916Z,22.70
2017-11-03T21:17:14.052Z,22.20
2017-11-03T21:19:42.419Z,23.20
2017-11-03T21:22:11.842Z,24.27
2017-11-03T21:24:39.848Z,23.03
2017-11-03T21:27:08.222Z,23.00
2017-11-03T21:29:36.620Z,22.60
2017-11-03T21:32:05.007Z,24.03
2017-11-03T21:34:34.129Z,23.17
2017-11-03T21:37:02.528Z,23.53
2017-11-03T21:39:30.888Z,23.30
2017-11-03T21:41:59.317Z,23.80
2017-11-03T21:44:29.032Z,23.60
2017-11-03T21:46:57.392Z,25.03
2017-11-03T21:49:25.747Z,23.90
2017-11-03T21:51:56.158Z,23.97
2017-11-03T21:54:24.540Z,24.47
2017-11-03T21:56:53.903Z,25.47
2017-11-03T21:59:22.309Z,25.20
2017-11-03T22:01:50.323Z,25.60
2017-11-03T22:04:18.683Z,25.03
2017-11-03T22:07:07.998Z,24.07
2017-11-03T22:09:37.123Z,26.53
2017-11-03T22:12:05.775Z,25.23
2017-11-03T22:14:37.532Z,23.43
2017-11-03T22:17:05.928Z,23.67
2017-11-03T22:19:35.051Z,26.43
2017-11-03T22:22:03.410Z,24.77
2017-11-03T22:24:31.787Z,22.90
2017-11-03T22:27:00.173Z,23.57
2017-11-03T22:29:28.387Z,24.33
2017-11-03T22:31:56.747Z,25.40
2017-11-03T22:34:25.104Z,24.37
2017-11-03T22:36:53.511Z,26.83
2017-11-03T22:39:22.642Z,26.70
2017-11-03T22:41:51.584Z,25.13
2017-11-03T22:44:19.978Z,25.60
2017-11-03T22:46:48.339Z,24.57
2017-11-03T22:49:20.162Z,24.20
2017-11-03T22:51:49.312Z,23.80
2017-11-03T22:54:17.665Z,23.60
2017-11-03T22:56:46.014Z,22.97
2017-11-03T22:59:15.172Z,22.90
2017-11-03T23:01:43.524Z,21.87
2017-11-03T23:04:11.881Z,23.30
2017-11-03T23:06:40.264Z,22.00
2017-11-03T23:09:08.620Z,21.80
2017-11-03T23:11:37.743Z,22.03
2017-11-03T23:14:08.156Z,21.57
2017-11-03T23:16:36.506Z,22.40
2017-11-03T23:19:05.627Z,22.87
2017-11-03T23:21:34.032Z,21.03
2017-11-03T23:24:02.384Z,20.93
2017-11-03T23:26:30.742Z,20.53
2017-11-03T23:28:59.885Z,21.53
2017-11-03T23:31:28.243Z,21.23
2017-11-03T23:33:56.630Z,21.33
2017-11-03T23:36:25.015Z,21.90
2017-11-03T23:38:53.373Z,20.13
2017-11-03T23:41:21.727Z,20.93
2017-11-03T23:43:50.866Z,19.57
2017-11-03T23:46:19.228Z,19.63
2017-11-03T23:48:47.679Z,18.97
2017-11-03T23:51:16.803Z,18.47
2017-11-03T23:53:46.156Z,19.20
2017-11-03T23:56:14.534Z,19.53
2017-11-03T23:58:43.828Z,19.53
